sensor_id;sensor_type;location;lat;lon;timestamp;temperature;humidity
14347;DHT22;7257;52.158;9.968;2022-09-09T00:00:00;16.80;99.90
14347;DHT22;7257;52.158;9.968;2022-09-09T00:00:22;16.80;99.90
14347;DHT22;7257;52.158;9.968;2022-09-09T00:00:47;16.80;99.90
14347;DHT22;7257;52.158;9.968;2022-09-09T00:01:23;16.80;99.90
14347;DHT22;7257;52.158;9.968;2022-09-09T00:01:52;16.80;99.90
14347;DHT22;7257;52.158;9.968;2022-09-09T00:02:19;16.80;99.90
14347;DHT22;7257;52.158;9.968;2022-09-09T00:02:44;16.80;99.90
14347;DHT22;7257;52.158;9.968;2022-09-09T00:03:12;16.80;99.90
14347;DHT22;7257;52.158;9.968;2022-09-09T00:03:43;16.90;99.90
14347;DHT22;7257;52.158;9.968;2022-09-09T00:04:13;16.90;99.90
14347;DHT22;7257;52.158;9.968;2022-09-09T00:04:37;16.90;99.90
14347;DHT22;7257;52.158;9.968;2022-09-09T00:05:14;16.90;99.90
14347;DHT22;7257;52.158;9.968;2022-09-09T00:05:42;16.90;94.50
14347;DHT22;7257;52.158;9.968;2022-09-09T00:06:12;17.10;99.90
14347;DHT22;7257;52.158;9.968;2022-09-09T00:06:45;17.00;99.90
14347;DHT22;7257;52.158;9.968;2022-09-09T00:07:15;17.00;99.90
14347;DHT22;7257;52.158;9.968;2022-09-09T00:07:43;17.00;99.90
14347;DHT22;7257;52.158;9.968;2022-09-09T00:08:14;17.00;99.90
14347;DHT22;7257;52.158;9.968;2022-09-09T00:08:44;17.00;99.90
14347;DHT22;7257;52.158;9.968;2022-09-09T00:09:15;17.00;99.90
14347;DHT22;7257;52.158;9.968;2022-09-09T00:09:46;17.00;99.90
14347;DHT22;7257;52.158;9.968;2022-09-09T00:10:17;17.00;99.90
14347;DHT22;7257;52.158;9.968;2022-09-09T00:10:40;17.00;99.90
14347;DHT22;7257;52.158;9.968;2022-09-09T00:11:03;17.00;99.90
14347;DHT22;7257;52.158;9.968;2022-09-09T00:11:30;17.00;99.90
14347;DHT22;7257;52.158;9.968;2022-09-09T00:12:03;17.00;99.90
14347;DHT22;7257;52.158;9.968;2022-09-09T00:12:34;17.00;99.90
14347;DHT22;7257;52.158;9.968;2022-09-09T00:13:04;17.00;99.90
14347;DHT22;7257;52.158;9.968;2022-09-09T00:13:35;17.00;99.90
14347;DHT22;7257;52.158;9.968;2022-09-09T00:14:00;17.00;99.90
14347;DHT22;7257;52.158;9.968;2022-09-09T00:14:31;17.00;99.90
14347;DHT22;7257;52.158;9.968;2022-09-09T00:14:56;16.90;95.10
14347;DHT22;7257;52.158;9.968;2022-09-09T00:15:19;16.90;99.90
14347;DHT22;7257;52.158;9.968;2022-09-09T00:15:49;16.90;96.40
14347;DHT22;7257;52.158;9.968;2022-09-09T00:16:18;16.90;99.90
14347;DHT22;7257;52.158;9.968;2022-09-09T00:16:42;16.80;99.90
14347;DHT22;7257;52.158;9.968;2022-09-09T00:17:11;16.80;99.90
14347;DHT22;7257;52.158;9.968;2022-09-09T00:17:42;16.80;99.90
14347;DHT22;7257;52.158;9.968;2022-09-09T00:18:11;16.80;99.90
14347;DHT22;7257;52.158;9.968;2022-09-09T00:18:53;16.80;99.90
14347;DHT22;7257;52.158;9.968;2022-09-09T00:19:21;16.80;99.90
14347;DHT22;7257;52.158;9.968;2022-09-09T00:19:48;16.70;99.90
14347;DHT22;7257;52.158;9.968;2022-09-09T00:20:12;16.70;99.90
14347;DHT22;7257;52.158;9.968;2022-09-09T00:20:38;16.70;99.90
14347;DHT22;7257;52.158;9.968;2022-09-09T00:21:06;16.70;89.40
14347;DHT22;7257;52.158;9.968;2022-09-09T00:21:33;16.70;87.50
14347;DHT22;7257;52.158;9.968;2022-09-09T00:22:08;16.70;96.30
14347;DHT22;7257;52.158;9.968;2022-09-09T00:22:34;16.70;89.90
14347;DHT22;7257;52.158;9.968;2022-09-09T00:23:03;16.70;99.90
14347;DHT22;7257;52.158;9.968;2022-09-09T00:23:32;16.70;99.90
14347;DHT22;7257;52.158;9.968;2022-09-09T00:23:54;16.70;83.70
14347;DHT22;7257;52.158;9.968;2022-09-09T00:24:26;16.70;99.90
14347;DHT22;7257;52.158;9.968;2022-09-09T00:24:52;16.70;89.60
14347;DHT22;7257;52.158;9.968;2022-09-09T00:25:19;16.70;99.90
14347;DHT22;7257;52.158;9.968;2022-09-09T00:25:49;16.70;99.90
14347;DHT22;7257;52.158;9.968;2022-09-09T00:26:20;16.70;99.90
14347;DHT22;7257;52.158;9.968;2022-09-09T00:26:45;16.70;99.90
14347;DHT22;7257;52.158;9.968;2022-09-09T00:27:26;16.70;99.90
14347;DHT22;7257;52.158;9.968;2022-09-09T00:27:51;16.70;99.90
14347;DHT22;7257;52.158;9.968;2022-09-09T00:28:17;16.70;99.90
14347;DHT22;7257;52.158;9.968;2022-09-09T00:28:41;16.70;99.90
14347;DHT22;7257;52.158;9.968;2022-09-09T00:29:14;16.70;99.90
14347;DHT22;7257;52.158;9.968;2022-09-09T00:29:43;16.70;99.90
14347;DHT22;7257;52.158;9.968;2022-09-09T00:30:15;16.70;99.90
14347;DHT22;7257;52.158;9.968;2022-09-09T00:30:39;16.70;99.90
14347;DHT22;7257;52.158;9.968;2022-09-09T00:31:11;16.70;99.90
14347;DHT22;7257;52.158;9.968;2022-09-09T00:31:33;16.70;99.90
14347;DHT22;7257;52.158;9.968;2022-09-09T00:31:55;16.70;99.90
14347;DHT22;7257;52.158;9.968;2022-09-09T00:32:20;16.60;99.90
14347;DHT22;7257;52.158;9.968;2022-09-09T00:32:41;16.60;99.90
14347;DHT22;7257;52.158;9.968;2022-09-09T00:33:12;16.60;99.90
14347;DHT22;7257;52.158;9.968;2022-09-09T00:33:36;16.60;99.90
14347;DHT22;7257;52.158;9.968;2022-09-09T00:34:05;16.60;99.90
14347;DHT22;7257;52.158;9.968;2022-09-09T00:34:29;16.70;99.90
14347;DHT22;7257;52.158;9.968;2022-09-09T00:34:55;16.60;99.90
14347;DHT22;7257;52.158;9.968;2022-09-09T00:35:22;16.60;99.90
14347;DHT22;7257;52.158;9.968;2022-09-09T00:35:49;16.60;99.90
14347;DHT22;7257;52.158;9.968;2022-09-09T00:36:14;16.60;99.90
14347;DHT22;7257;52.158;9.968;2022-09-09T00:36:38;16.60;94.90
14347;DHT22;7257;52.158;9.968;2022-09-09T00:36:59;16.60;95.00
14347;DHT22;7257;52.158;9.968;2022-09-09T00:37:21;16.60;99.90
14347;DHT22;7257;52.158;9.968;2022-09-09T00:37:44;16.60;99.90
14347;DHT22;7257;52.158;9.968;2022-09-09T00:38:12;16.60;99.90
14347;DHT22;7257;52.158;9.968;2022-09-09T00:38:37;16.70;99.90
14347;DHT22;7257;52.158;9.968;2022-09-09T00:39:03;16.60;93.90
14347;DHT22;7257;52.158;9.968;2022-09-09T00:39:32;16.60;99.90
14347;DHT22;7257;52.158;9.968;2022-09-09T00:40:01;16.70;99.90
14347;DHT22;7257;52.158;9.968;2022-09-09T00:40:29;16.70;99.70
14347;DHT22;7257;52.158;9.968;2022-09-09T00:40:53;16.70;99.90
14347;DHT22;7257;52.158;9.968;2022-09-09T00:41:21;16.70;99.90
14347;DHT22;7257;52.158;9.968;2022-09-09T00:41:52;16.70;99.90
14347;DHT22;7257;52.158;9.968;2022-09-09T00:42:24;16.70;99.90
14347;DHT22;7257;52.158;9.968;2022-09-09T00:42:48;16.70;98.90
14347;DHT22;7257;52.158;9.968;2022-09-09T00:43:26;16.70;99.90
14347;DHT22;7257;52.158;9.968;2022-09-09T00:43:57;16.70;99.90
14347;DHT22;7257;52.158;9.968;2022-09-09T00:44:28;16.70;99.90
14347;DHT22;7257;52.158;9.968;2022-09-09T00:44:59;16.70;94.90
14347;DHT22;7257;52.158;9.968;2022-09-09T00:45:47;16.60;99.90
14347;DHT22;7257;52.158;9.968;2022-09-09T00:46:40;16.60;99.90
14347;DHT22;7257;52.158;9.968;2022-09-09T00:47:16;16.60;99.90
14347;DHT22;7257;52.158;9.968;2022-09-09T00:47:46;16.60;99.30
14347;DHT22;7257;52.158;9.968;2022-09-09T00:48:12;16.50;99.90
14347;DHT22;7257;52.158;9.968;2022-09-09T00:48:53;16.50;99.90
14347;DHT22;7257;52.158;9.968;2022-09-09T00:49:22;16.50;99.90
14347;DHT22;7257;52.158;9.968;2022-09-09T00:49:58;16.40;99.90
14347;DHT22;7257;52.158;9.968;2022-09-09T00:50:35;16.50;99.90
14347;DHT22;7257;52.158;9.968;2022-09-09T00:51:04;16.50;99.90
14347;DHT22;7257;52.158;9.968;2022-09-09T00:51:34;16.50;99.90
14347;DHT22;7257;52.158;9.968;2022-09-09T00:52:08;16.50;99.90
14347;DHT22;7257;52.158;9.968;2022-09-09T00:52:42;16.50;99.90
14347;DHT22;7257;52.158;9.968;2022-09-09T00:53:27;16.50;99.90
14347;DHT22;7257;52.158;9.968;2022-09-09T00:54:15;16.50;99.90
14347;DHT22;7257;52.158;9.968;2022-09-09T00:54:45;16.60;99.90
14347;DHT22;7257;52.158;9.968;2022-09-09T00:55:19;16.50;99.90
14347;DHT22;7257;52.158;9.968;2022-09-09T00:55:47;16.60;99.90
14347;DHT22;7257;52.158;9.968;2022-09-09T00:56:13;16.60;99.90
14347;DHT22;7257;52.158;9.968;2022-09-09T00:56:37;16.60;99.90
14347;DHT22;7257;52.158;9.968;2022-09-09T00:57:14;16.60;99.90
14347;DHT22;7257;52.158;9.968;2022-09-09T00:57:40;16.60;99.90
14347;DHT22;7257;52.158;9.968;2022-09-09T00:58:02;16.60;99.90
14347;DHT22;7257;52.158;9.968;2022-09-09T00:58:22;16.60;99.90
14347;DHT22;7257;52.158;9.968;2022-09-09T00:58:50;16.50;99.90
14347;DHT22;7257;52.158;9.968;2022-09-09T00:59:24;16.60;99.90
14347;DHT22;7257;52.158;9.968;2022-09-09T00:59:50;16.70;99.90
14347;DHT22;7257;52.158;9.968;2022-09-09T01:00:21;16.60;99.90
14347;DHT22;7257;52.158;9.968;2022-09-09T01:00:52;16.70;99.90
14347;DHT22;7257;52.158;9.968;2022-09-09T01:01:18;16.70;99.90
14347;DHT22;7257;52.158;9.968;2022-09-09T01:01:39;16.70;99.90
14347;DHT22;7257;52.158;9.968;2022-09-09T01:02:08;16.70;99.90
14347;DHT22;7257;52.158;9.968;2022-09-09T01:02:39;16.70;99.90
14347;DHT22;7257;52.158;9.968;2022-09-09T01:03:20;16.60;99.90
14347;DHT22;7257;52.158;9.968;2022-09-09T01:03:51;16.70;99.90
14347;DHT22;7257;52.158;9.968;2022-09-09T01:04:18;16.70;99.90
14347;DHT22;7257;52.158;9.968;2022-09-09T01:04:43;16.70;99.90
14347;DHT22;7257;52.158;9.968;2022-09-09T01:05:12;16.70;99.90
14347;DHT22;7257;52.158;9.968;2022-09-09T01:05:38;16.70;99.90
14347;DHT22;7257;52.158;9.968;2022-09-09T01:06:12;16.70;99.90
14347;DHT22;7257;52.158;9.968;2022-09-09T01:06:36;16.70;99.90
14347;DHT22;7257;52.158;9.968;2022-09-09T01:07:04;16.70;99.90
14347;DHT22;7257;52.158;9.968;2022-09-09T01:07:28;16.70;99.90
14347;DHT22;7257;52.158;9.968;2022-09-09T01:07:50;16.70;99.90
14347;DHT22;7257;52.158;9.968;2022-09-09T01:09:15;16.70;99.90
14347;DHT22;7257;52.158;9.968;2022-09-09T01:09:44;16.70;99.90
14347;DHT22;7257;52.158;9.968;2022-09-09T01:10:15;16.70;99.90
14347;DHT22;7257;52.158;9.968;2022-09-09T01:10:49;16.70;99.90
14347;DHT22;7257;52.158;9.968;2022-09-09T01:11:18;16.70;99.90
14347;DHT22;7257;52.158;9.968;2022-09-09T01:11:49;16.70;99.90
14347;DHT22;7257;52.158;9.968;2022-09-09T01:12:16;16.70;99.90
14347;DHT22;7257;52.158;9.968;2022-09-09T01:12:39;16.70;99.90
14347;DHT22;7257;52.158;9.968;2022-09-09T01:13:09;16.70;99.90
14347;DHT22;7257;52.158;9.968;2022-09-09T01:13:36;16.70;99.90
14347;DHT22;7257;52.158;9.968;2022-09-09T01:14:03;16.70;99.90
14347;DHT22;7257;52.158;9.968;2022-09-09T01:14:40;16.70;99.90
14347;DHT22;7257;52.158;9.968;2022-09-09T01:15:09;16.70;99.90
14347;DHT22;7257;52.158;9.968;2022-09-09T01:15:32;16.70;99.90
14347;DHT22;7257;52.158;9.968;2022-09-09T01:15:59;16.70;99.90
14347;DHT22;7257;52.158;9.968;2022-09-09T01:16:22;16.70;99.90
14347;DHT22;7257;52.158;9.968;2022-09-09T01:16:45;16.70;99.90
14347;DHT22;7257;52.158;9.968;2022-09-09T01:17:13;16.70;99.90
14347;DHT22;7257;52.158;9.968;2022-09-09T01:17:44;16.70;99.90
14347;DHT22;7257;52.158;9.968;2022-09-09T01:18:08;16.70;99.90
14347;DHT22;7257;52.158;9.968;2022-09-09T01:18:37;16.70;99.90
14347;DHT22;7257;52.158;9.968;2022-09-09T01:18:59;16.70;99.90
14347;DHT22;7257;52.158;9.968;2022-09-09T01:19:40;16.70;99.90
14347;DHT22;7257;52.158;9.968;2022-09-09T01:20:12;16.70;99.90
14347;DHT22;7257;52.158;9.968;2022-09-09T01:20:43;16.70;99.90
14347;DHT22;7257;52.158;9.968;2022-09-09T01:21:09;16.70;99.90
14347;DHT22;7257;52.158;9.968;2022-09-09T01:21:38;16.70;99.90
14347;DHT22;7257;52.158;9.968;2022-09-09T01:22:06;16.70;99.90
14347;DHT22;7257;52.158;9.968;2022-09-09T01:22:35;16.70;99.90
14347;DHT22;7257;52.158;9.968;2022-09-09T01:23:07;16.60;99.90
14347;DHT22;7257;52.158;9.968;2022-09-09T01:23:44;16.60;99.90
14347;DHT22;7257;52.158;9.968;2022-09-09T01:24:21;16.50;99.90
14347;DHT22;7257;52.158;9.968;2022-09-09T01:25:04;16.40;99.90
14347;DHT22;7257;52.158;9.968;2022-09-09T01:26:03;16.50;99.90
14347;DHT22;7257;52.158;9.968;2022-09-09T01:26:26;16.50;99.90
14347;DHT22;7257;52.158;9.968;2022-09-09T01:26:51;16.50;99.90
14347;DHT22;7257;52.158;9.968;2022-09-09T01:27:17;16.50;99.90
14347;DHT22;7257;52.158;9.968;2022-09-09T01:27:40;16.50;99.90
14347;DHT22;7257;52.158;9.968;2022-09-09T01:28:05;16.50;99.90
14347;DHT22;7257;52.158;9.968;2022-09-09T01:28:31;16.50;99.90
14347;DHT22;7257;52.158;9.968;2022-09-09T01:28:55;16.40;99.90
14347;DHT22;7257;52.158;9.968;2022-09-09T01:29:21;16.60;99.90
14347;DHT22;7257;52.158;9.968;2022-09-09T01:29:42;16.60;92.70
14347;DHT22;7257;52.158;9.968;2022-09-09T01:30:08;16.60;99.90
14347;DHT22;7257;52.158;9.968;2022-09-09T01:30:29;16.60;99.90
14347;DHT22;7257;52.158;9.968;2022-09-09T01:30:51;16.60;99.90
14347;DHT22;7257;52.158;9.968;2022-09-09T01:31:17;16.50;99.90
14347;DHT22;7257;52.158;9.968;2022-09-09T01:31:41;16.60;99.90
14347;DHT22;7257;52.158;9.968;2022-09-09T01:32:37;16.60;99.90
14347;DHT22;7257;52.158;9.968;2022-09-09T01:32:58;16.70;99.90
14347;DHT22;7257;52.158;9.968;2022-09-09T01:33:21;16.70;99.90
14347;DHT22;7257;52.158;9.968;2022-09-09T01:33:41;16.70;99.90
14347;DHT22;7257;52.158;9.968;2022-09-09T01:34:10;16.70;99.90
14347;DHT22;7257;52.158;9.968;2022-09-09T01:34:36;16.60;99.90
14347;DHT22;7257;52.158;9.968;2022-09-09T01:34:58;16.70;99.90
14347;DHT22;7257;52.158;9.968;2022-09-09T01:35:29;16.70;99.90
14347;DHT22;7257;52.158;9.968;2022-09-09T01:35:55;16.70;99.90
14347;DHT22;7257;52.158;9.968;2022-09-09T01:36:26;16.70;99.90
14347;DHT22;7257;52.158;9.968;2022-09-09T01:36:55;16.70;99.90
14347;DHT22;7257;52.158;9.968;2022-09-09T01:37:18;16.60;99.90
14347;DHT22;7257;52.158;9.968;2022-09-09T01:37:38;16.60;99.90
14347;DHT22;7257;52.158;9.968;2022-09-09T01:38:01;16.60;99.90
14347;DHT22;7257;52.158;9.968;2022-09-09T01:38:22;16.60;99.90
14347;DHT22;7257;52.158;9.968;2022-09-09T01:38:47;16.60;99.90
14347;DHT22;7257;52.158;9.968;2022-09-09T01:39:08;16.60;99.90
14347;DHT22;7257;52.158;9.968;2022-09-09T01:39:30;16.60;99.90
14347;DHT22;7257;52.158;9.968;2022-09-09T01:39:51;16.60;99.90
14347;DHT22;7257;52.158;9.968;2022-09-09T01:40:12;16.60;99.90
14347;DHT22;7257;52.158;9.968;2022-09-09T01:40:33;16.60;99.90
14347;DHT22;7257;52.158;9.968;2022-09-09T01:40:55;16.50;99.90
14347;DHT22;7257;52.158;9.968;2022-09-09T01:41:20;16.40;99.90
14347;DHT22;7257;52.158;9.968;2022-09-09T01:41:41;16.50;99.90
14347;DHT22;7257;52.158;9.968;2022-09-09T01:42:03;16.50;99.90
14347;DHT22;7257;52.158;9.968;2022-09-09T01:42:25;16.50;99.90
14347;DHT22;7257;52.158;9.968;2022-09-09T01:42:47;16.50;99.90
14347;DHT22;7257;52.158;9.968;2022-09-09T01:43:08;16.50;99.90
14347;DHT22;7257;52.158;9.968;2022-09-09T01:43:30;16.40;99.90
14347;DHT22;7257;52.158;9.968;2022-09-09T01:43:54;16.40;99.90
14347;DHT22;7257;52.158;9.968;2022-09-09T01:44:17;16.50;99.90
14347;DHT22;7257;52.158;9.968;2022-09-09T01:44:39;16.40;99.90
14347;DHT22;7257;52.158;9.968;2022-09-09T01:44:59;16.50;99.90
14347;DHT22;7257;52.158;9.968;2022-09-09T01:45:21;16.50;99.90
14347;DHT22;7257;52.158;9.968;2022-09-09T01:45:46;16.40;99.90
14347;DHT22;7257;52.158;9.968;2022-09-09T01:46:12;16.40;99.90
14347;DHT22;7257;52.158;9.968;2022-09-09T01:46:34;16.50;99.90
14347;DHT22;7257;52.158;9.968;2022-09-09T01:46:55;16.50;99.90
14347;DHT22;7257;52.158;9.968;2022-09-09T01:47:16;16.40;99.90
14347;DHT22;7257;52.158;9.968;2022-09-09T01:47:38;16.50;99.90
14347;DHT22;7257;52.158;9.968;2022-09-09T01:48:02;16.50;99.90
14347;DHT22;7257;52.158;9.968;2022-09-09T01:48:24;16.50;99.90
14347;DHT22;7257;52.158;9.968;2022-09-09T01:48:45;16.50;99.90
14347;DHT22;7257;52.158;9.968;2022-09-09T01:49:07;16.50;99.90
14347;DHT22;7257;52.158;9.968;2022-09-09T01:49:29;16.40;99.90
14347;DHT22;7257;52.158;9.968;2022-09-09T01:49:53;16.50;99.90
14347;DHT22;7257;52.158;9.968;2022-09-09T01:50:15;16.50;99.90
14347;DHT22;7257;52.158;9.968;2022-09-09T01:50:36;16.50;99.90
14347;DHT22;7257;52.158;9.968;2022-09-09T01:50:58;16.50;99.90
14347;DHT22;7257;52.158;9.968;2022-09-09T01:51:22;16.50;99.90
14347;DHT22;7257;52.158;9.968;2022-09-09T01:51:46;16.50;99.90
14347;DHT22;7257;52.158;9.968;2022-09-09T01:52:12;16.50;99.90
14347;DHT22;7257;52.158;9.968;2022-09-09T01:52:33;16.50;99.90
14347;DHT22;7257;52.158;9.968;2022-09-09T01:53:00;16.50;99.90
14347;DHT22;7257;52.158;9.968;2022-09-09T01:53:22;16.40;99.90
14347;DHT22;7257;52.158;9.968;2022-09-09T01:53:45;16.40;99.90
14347;DHT22;7257;52.158;9.968;2022-09-09T01:54:07;16.40;99.90
14347;DHT22;7257;52.158;9.968;2022-09-09T01:54:30;16.40;99.90
14347;DHT22;7257;52.158;9.968;2022-09-09T01:54:53;16.40;99.90
14347;DHT22;7257;52.158;9.968;2022-09-09T01:55:14;16.30;99.90
14347;DHT22;7257;52.158;9.968;2022-09-09T01:55:39;16.40;99.90
14347;DHT22;7257;52.158;9.968;2022-09-09T01:56:07;16.30;99.90
14347;DHT22;7257;52.158;9.968;2022-09-09T01:56:41;16.30;99.90
14347;DHT22;7257;52.158;9.968;2022-09-09T01:57:08;16.40;99.90
14347;DHT22;7257;52.158;9.968;2022-09-09T01:57:36;16.30;99.90
14347;DHT22;7257;52.158;9.968;2022-09-09T01:58:17;16.30;99.90
14347;DHT22;7257;52.158;9.968;2022-09-09T01:58:57;16.40;99.90
14347;DHT22;7257;52.158;9.968;2022-09-09T01:59:33;16.40;80.20
14347;DHT22;7257;52.158;9.968;2022-09-09T02:00:03;16.30;91.10
14347;DHT22;7257;52.158;9.968;2022-09-09T02:00:27;16.30;99.90
14347;DHT22;7257;52.158;9.968;2022-09-09T02:00:56;16.40;99.90
14347;DHT22;7257;52.158;9.968;2022-09-09T02:01:30;16.30;99.90
14347;DHT22;7257;52.158;9.968;2022-09-09T02:02:09;16.30;99.90
14347;DHT22;7257;52.158;9.968;2022-09-09T02:02:35;16.30;99.90
14347;DHT22;7257;52.158;9.968;2022-09-09T02:03:03;16.30;99.90
14347;DHT22;7257;52.158;9.968;2022-09-09T02:03:28;16.40;99.90
14347;DHT22;7257;52.158;9.968;2022-09-09T02:03:52;16.30;99.90
14347;DHT22;7257;52.158;9.968;2022-09-09T02:04:24;16.30;99.90
14347;DHT22;7257;52.158;9.968;2022-09-09T02:04:52;16.30;99.90
14347;DHT22;7257;52.158;9.968;2022-09-09T02:05:32;16.30;99.90
14347;DHT22;7257;52.158;9.968;2022-09-09T02:06:05;16.40;99.90
14347;DHT22;7257;52.158;9.968;2022-09-09T02:06:34;16.30;99.90
14347;DHT22;7257;52.158;9.968;2022-09-09T02:06:56;16.40;99.90
14347;DHT22;7257;52.158;9.968;2022-09-09T02:07:28;16.50;99.90
14347;DHT22;7257;52.158;9.968;2022-09-09T02:07:56;16.40;99.90
14347;DHT22;7257;52.158;9.968;2022-09-09T02:08:24;16.40;99.90
14347;DHT22;7257;52.158;9.968;2022-09-09T02:08:49;16.50;99.90
14347;DHT22;7257;52.158;9.968;2022-09-09T02:09:13;16.40;99.90
14347;DHT22;7257;52.158;9.968;2022-09-09T02:09:35;16.40;99.90
14347;DHT22;7257;52.158;9.968;2022-09-09T02:10:03;16.40;99.90
14347;DHT22;7257;52.158;9.968;2022-09-09T02:10:32;16.50;99.90
14347;DHT22;7257;52.158;9.968;2022-09-09T02:10:58;16.40;99.90
14347;DHT22;7257;52.158;9.968;2022-09-09T02:11:22;16.50;99.90
14347;DHT22;7257;52.158;9.968;2022-09-09T02:11:45;16.50;99.90
14347;DHT22;7257;52.158;9.968;2022-09-09T02:12:12;16.50;99.90
14347;DHT22;7257;52.158;9.968;2022-09-09T02:12:33;16.50;99.90
14347;DHT22;7257;52.158;9.968;2022-09-09T02:13:00;16.50;99.90
14347;DHT22;7257;52.158;9.968;2022-09-09T02:13:22;16.50;99.90
14347;DHT22;7257;52.158;9.968;2022-09-09T02:13:45;16.50;99.90
14347;DHT22;7257;52.158;9.968;2022-09-09T02:14:14;16.40;99.90
14347;DHT22;7257;52.158;9.968;2022-09-09T02:14:41;16.40;99.90
14347;DHT22;7257;52.158;9.968;2022-09-09T02:15:07;16.50;99.90
14347;DHT22;7257;52.158;9.968;2022-09-09T02:15:36;16.50;99.90
14347;DHT22;7257;52.158;9.968;2022-09-09T02:16:04;16.50;99.90
14347;DHT22;7257;52.158;9.968;2022-09-09T02:16:32;16.50;99.90
14347;DHT22;7257;52.158;9.968;2022-09-09T02:16:59;16.50;99.90
14347;DHT22;7257;52.158;9.968;2022-09-09T02:17:26;16.50;99.90
14347;DHT22;7257;52.158;9.968;2022-09-09T02:17:52;16.50;99.90
14347;DHT22;7257;52.158;9.968;2022-09-09T02:18:20;16.50;99.90
14347;DHT22;7257;52.158;9.968;2022-09-09T02:18:48;16.40;99.90
14347;DHT22;7257;52.158;9.968;2022-09-09T02:19:17;16.50;99.90
14347;DHT22;7257;52.158;9.968;2022-09-09T02:19:52;16.40;99.90
14347;DHT22;7257;52.158;9.968;2022-09-09T02:20:15;16.60;85.10
14347;DHT22;7257;52.158;9.968;2022-09-09T02:20:39;16.50;99.90
14347;DHT22;7257;52.158;9.968;2022-09-09T02:21:02;16.60;99.90
14347;DHT22;7257;52.158;9.968;2022-09-09T02:21:25;16.60;99.90
14347;DHT22;7257;52.158;9.968;2022-09-09T02:21:49;16.50;99.90
14347;DHT22;7257;52.158;9.968;2022-09-09T02:22:11;16.60;99.90
14347;DHT22;7257;52.158;9.968;2022-09-09T02:22:33;16.60;99.90
14347;DHT22;7257;52.158;9.968;2022-09-09T02:22:56;16.60;99.90
14347;DHT22;7257;52.158;9.968;2022-09-09T02:23:19;16.60;99.90
14347;DHT22;7257;52.158;9.968;2022-09-09T02:23:44;16.60;99.90
14347;DHT22;7257;52.158;9.968;2022-09-09T02:24:08;16.60;76.00
14347;DHT22;7257;52.158;9.968;2022-09-09T02:24:34;16.60;99.90
14347;DHT22;7257;52.158;9.968;2022-09-09T02:24:58;16.60;99.90
14347;DHT22;7257;52.158;9.968;2022-09-09T02:25:23;16.60;99.90
14347;DHT22;7257;52.158;9.968;2022-09-09T02:25:45;16.60;99.90
14347;DHT22;7257;52.158;9.968;2022-09-09T02:26:09;16.60;99.90
14347;DHT22;7257;52.158;9.968;2022-09-09T02:26:35;16.60;99.90
14347;DHT22;7257;52.158;9.968;2022-09-09T02:27:01;16.60;99.90
14347;DHT22;7257;52.158;9.968;2022-09-09T02:27:28;16.60;89.60
14347;DHT22;7257;52.158;9.968;2022-09-09T02:27:52;16.60;99.90
14347;DHT22;7257;52.158;9.968;2022-09-09T02:28:14;16.60;99.90
14347;DHT22;7257;52.158;9.968;2022-09-09T02:28:38;16.60;99.90
14347;DHT22;7257;52.158;9.968;2022-09-09T02:29:06;16.60;99.90
14347;DHT22;7257;52.158;9.968;2022-09-09T02:29:33;16.60;99.90
14347;DHT22;7257;52.158;9.968;2022-09-09T02:29:57;16.60;97.00
14347;DHT22;7257;52.158;9.968;2022-09-09T02:30:21;16.60;99.90
14347;DHT22;7257;52.158;9.968;2022-09-09T02:30:42;16.50;99.90
14347;DHT22;7257;52.158;9.968;2022-09-09T02:31:07;16.60;99.90
14347;DHT22;7257;52.158;9.968;2022-09-09T02:31:30;16.60;99.90
14347;DHT22;7257;52.158;9.968;2022-09-09T02:31:54;16.50;95.50
14347;DHT22;7257;52.158;9.968;2022-09-09T02:32:22;16.60;97.50
14347;DHT22;7257;52.158;9.968;2022-09-09T02:32:44;16.50;99.90
14347;DHT22;7257;52.158;9.968;2022-09-09T02:33:10;16.60;99.90
14347;DHT22;7257;52.158;9.968;2022-09-09T02:33:37;16.60;99.90
14347;DHT22;7257;52.158;9.968;2022-09-09T02:34:00;16.60;99.90
14347;DHT22;7257;52.158;9.968;2022-09-09T02:34:22;16.60;98.70
14347;DHT22;7257;52.158;9.968;2022-09-09T02:34:47;16.50;99.10
14347;DHT22;7257;52.158;9.968;2022-09-09T02:35:13;16.50;95.00
14347;DHT22;7257;52.158;9.968;2022-09-09T02:35:35;16.50;98.90
14347;DHT22;7257;52.158;9.968;2022-09-09T02:36:02;16.50;99.90
14347;DHT22;7257;52.158;9.968;2022-09-09T02:36:29;16.60;99.90
14347;DHT22;7257;52.158;9.968;2022-09-09T02:36:53;16.60;99.90
14347;DHT22;7257;52.158;9.968;2022-09-09T02:37:18;16.50;99.90
14347;DHT22;7257;52.158;9.968;2022-09-09T02:37:40;16.60;99.90
14347;DHT22;7257;52.158;9.968;2022-09-09T02:38:06;16.60;99.90
14347;DHT22;7257;52.158;9.968;2022-09-09T02:38:30;16.50;99.90
14347;DHT22;7257;52.158;9.968;2022-09-09T02:38:56;16.50;99.90
14347;DHT22;7257;52.158;9.968;2022-09-09T02:39:17;16.60;99.90
14347;DHT22;7257;52.158;9.968;2022-09-09T02:39:39;16.60;99.90
14347;DHT22;7257;52.158;9.968;2022-09-09T02:40:00;16.60;99.90
14347;DHT22;7257;52.158;9.968;2022-09-09T02:40:21;16.60;99.90
14347;DHT22;7257;52.158;9.968;2022-09-09T02:40:42;16.70;99.90
14347;DHT22;7257;52.158;9.968;2022-09-09T02:41:04;16.70;99.90
14347;DHT22;7257;52.158;9.968;2022-09-09T02:41:31;16.60;99.90
14347;DHT22;7257;52.158;9.968;2022-09-09T02:41:53;16.60;99.90
14347;DHT22;7257;52.158;9.968;2022-09-09T02:42:15;16.60;99.90
14347;DHT22;7257;52.158;9.968;2022-09-09T02:42:39;16.60;99.90
14347;DHT22;7257;52.158;9.968;2022-09-09T02:43:00;16.50;99.90
14347;DHT22;7257;52.158;9.968;2022-09-09T02:43:21;16.60;99.90
14347;DHT22;7257;52.158;9.968;2022-09-09T02:43:43;16.60;99.90
14347;DHT22;7257;52.158;9.968;2022-09-09T02:44:08;16.60;99.90
14347;DHT22;7257;52.158;9.968;2022-09-09T02:44:30;16.50;99.90
14347;DHT22;7257;52.158;9.968;2022-09-09T02:44:52;16.60;94.10
14347;DHT22;7257;52.158;9.968;2022-09-09T02:45:17;16.60;99.10
14347;DHT22;7257;52.158;9.968;2022-09-09T02:45:42;16.50;97.10
14347;DHT22;7257;52.158;9.968;2022-09-09T02:46:12;16.60;96.90
14347;DHT22;7257;52.158;9.968;2022-09-09T02:46:50;16.60;99.90
14347;DHT22;7257;52.158;9.968;2022-09-09T02:47:24;16.50;99.90
14347;DHT22;7257;52.158;9.968;2022-09-09T02:47:51;16.60;99.90
14347;DHT22;7257;52.158;9.968;2022-09-09T02:48:22;16.60;99.90
14347;DHT22;7257;52.158;9.968;2022-09-09T02:48:51;16.60;99.90
14347;DHT22;7257;52.158;9.968;2022-09-09T02:49:17;16.60;99.90
14347;DHT22;7257;52.158;9.968;2022-09-09T02:49:47;16.50;99.90
14347;DHT22;7257;52.158;9.968;2022-09-09T02:50:13;16.50;99.90
14347;DHT22;7257;52.158;9.968;2022-09-09T02:50:41;16.60;99.90
14347;DHT22;7257;52.158;9.968;2022-09-09T02:51:09;16.50;96.70
14347;DHT22;7257;52.158;9.968;2022-09-09T02:51:37;16.50;99.90
14347;DHT22;7257;52.158;9.968;2022-09-09T02:52:04;16.50;99.90
14347;DHT22;7257;52.158;9.968;2022-09-09T02:52:31;16.50;99.90
14347;DHT22;7257;52.158;9.968;2022-09-09T02:53:07;16.50;99.90
14347;DHT22;7257;52.158;9.968;2022-09-09T02:53:39;16.40;99.90
14347;DHT22;7257;52.158;9.968;2022-09-09T02:54:10;16.60;99.90
14347;DHT22;7257;52.158;9.968;2022-09-09T02:54:37;16.50;99.90
14347;DHT22;7257;52.158;9.968;2022-09-09T02:55:04;16.50;99.90